Time;durP1;ratioP1;P1;durP2;ratioP2;P2;SDS_P1;SDS_P2;PMS_P1;PMS_P2;Temp;Humidity;BMP_temperature;BMP_pressure;BME280_temperature;BME280_humidity;BME280_pressure;Samples;Min_cycle;Max_cycle;Signal;HPM_P1;HPM_P2
2021/08/17 00:00:34;;;;;;;10.43;2.80;;;;;;;;;;5029219;28;20486;-73
2021/08/17 00:03:00;;;;;;;5.33;2.10;;;;;;;;;;5029153;28;20425;-73
2021/08/17 00:05:26;;;;;;;7.37;2.33;;;;;;;;;;5032119;28;20456;-74
2021/08/17 00:07:52;;;;;;;5.05;1.80;;;;;;;;;;5031928;28;20428;-73
2021/08/17 00:10:18;;;;;;;8.57;2.00;;;;;;;;;;5032400;28;20182;-73
2021/08/17 00:12:44;;;;;;;7.47;2.37;;;;;;;;;;5032897;28;20735;-73
2021/08/17 00:15:10;;;;;;;6.30;2.87;;;;;;;;;;5023975;28;20523;-72
2021/08/17 00:17:36;;;;;;;4.93;2.00;;;;;;;;;;5032322;28;20467;-73
2021/08/17 00:20:03;;;;;;;6.43;2.63;;;;;;;;;;5045461;28;20407;-73
2021/08/17 00:22:29;;;;;;;9.97;2.90;;;;;;;;;;5032648;28;20889;-73
2021/08/17 00:24:55;;;;;;;5.33;2.50;;;;;;;;;;5032457;28;20434;-72
2021/08/17 00:27:21;;;;;;;5.97;2.00;;;;;;;;;;5052273;28;20422;-72
2021/08/17 00:29:47;;;;;;;9.90;2.37;;;;;;;;;;5039635;28;20899;-73
2021/08/17 00:32:14;;;;;;;6.43;2.50;;;;;;;;;;5038928;28;20481;-73
2021/08/17 00:34:40;;;;;;;6.40;2.60;;;;;;;;;;5032592;28;20439;-73
2021/08/17 00:37:06;;;;;;;7.20;2.17;;;;;;;;;;5032306;28;20464;-73
2021/08/17 00:39:32;;;;;;;9.40;3.07;;;;;;;;;;5033857;28;20413;-73
2021/08/17 00:41:59;;;;;;;8.07;2.70;;;;;;;;;;5052455;28;20860;-73
2021/08/17 00:44:26;;;;;;;5.80;2.50;;;;;;;;;;5041111;28;20452;-74
2021/08/17 00:46:52;;;;;;;10.13;3.80;;;;;;;;;;5021781;28;20740;-73
2021/08/17 00:49:19;;;;;;;8.30;3.00;;;;;;;;;;5031662;28;20436;-73
2021/08/17 00:51:45;;;;;;;9.33;3.03;;;;;;;;;;5036884;28;20506;-71
2021/08/17 00:54:11;;;;;;;6.67;2.73;;;;;;;;;;5036963;28;20902;-72
2021/08/17 00:56:38;;;;;;;5.97;2.60;;;;;;;;;;5026435;28;20456;-76
2021/08/17 00:59:04;;;;;;;7.27;3.00;;;;;;;;;;5030963;28;20617;-73
2021/08/17 01:01:30;;;;;;;11.13;2.50;;;;;;;;;;5043958;28;20836;-73
2021/08/17 01:03:57;;;;;;;8.33;2.90;;;;;;;;;;5035098;28;20437;-72
2021/08/17 01:06:23;;;;;;;8.97;2.57;;;;;;;;;;5035434;28;20591;-72
2021/08/17 01:08:49;;;;;;;10.80;2.60;;;;;;;;;;5035350;28;20439;-72
2021/08/17 01:11:16;;;;;;;6.77;3.07;;;;;;;;;;5035413;28;20423;-73
2021/08/17 01:13:42;;;;;;;7.10;2.33;;;;;;;;;;5054392;28;20428;-72
2021/08/17 01:16:08;;;;;;;7.63;2.03;;;;;;;;;;5040356;28;20853;-72
2021/08/17 01:18:34;;;;;;;4.50;2.33;;;;;;;;;;5034868;28;20452;-72
2021/08/17 01:21:01;;;;;;;5.73;1.90;;;;;;;;;;5031843;28;20461;-72
2021/08/17 01:23:30;;;;;;;5.23;2.00;;;;;;;;;;5050445;28;20422;-72
2021/08/17 01:25:56;;;;;;;6.40;1.90;;;;;;;;;;5043083;28;20453;-73
2021/08/17 01:28:23;;;;;;;5.87;1.90;;;;;;;;;;5044068;28;20417;-73
2021/08/17 01:30:57;;;;;;;7.40;2.33;;;;;;;;;;5035716;28;20471;-73
2021/08/17 01:33:23;;;;;;;7.10;2.27;;;;;;;;;;5042560;28;20518;-73
2021/08/17 01:35:49;;;;;;;7.00;2.10;;;;;;;;;;5040066;28;20526;-73
2021/08/17 01:38:15;;;;;;;4.10;2.00;;;;;;;;;;5054765;28;20469;-73
2021/08/17 01:40:41;;;;;;;6.27;2.23;;;;;;;;;;5032796;28;20429;-73
2021/08/17 01:43:07;;;;;;;6.37;2.67;;;;;;;;;;5050920;28;20471;-73
2021/08/17 01:45:33;;;;;;;8.80;2.27;;;;;;;;;;5031050;28;20441;-73
2021/08/17 01:47:59;;;;;;;9.67;2.20;;;;;;;;;;5035071;28;20885;-73
2021/08/17 01:50:25;;;;;;;4.40;2.30;;;;;;;;;;5035118;28;20432;-73
2021/08/17 01:52:54;;;;;;;10.77;2.30;;;;;;;;;;5029377;28;20441;-73
2021/08/17 01:55:20;;;;;;;4.93;2.27;;;;;;;;;;5034944;28;20457;-73
2021/08/17 01:57:46;;;;;;;4.60;2.60;;;;;;;;;;5034148;28;20461;-73
2021/08/17 02:00:13;;;;;;;5.40;2.03;;;;;;;;;;5034956;28;20746;-73
2021/08/17 02:02:39;;;;;;;6.10;2.77;;;;;;;;;;5034519;28;20436;-71
2021/08/17 02:05:05;;;;;;;7.80;2.50;;;;;;;;;;5029827;28;20455;-71
2021/08/17 02:07:31;;;;;;;4.50;2.10;;;;;;;;;;5052917;28;20974;-72
2021/08/17 02:09:57;;;;;;;4.37;2.53;;;;;;;;;;5033623;28;20429;-74
2021/08/17 02:12:23;;;;;;;3.13;1.97;;;;;;;;;;5043675;28;20528;-72
2021/08/17 02:14:49;;;;;;;9.47;2.60;;;;;;;;;;5053478;28;20463;-72
2021/08/17 02:17:15;;;;;;;3.00;2.20;;;;;;;;;;5032097;28;20968;-73
2021/08/17 02:19:41;;;;;;;8.30;2.53;;;;;;;;;;5040925;28;20408;-72
2021/08/17 02:22:07;;;;;;;6.57;2.30;;;;;;;;;;5053314;28;20424;-72
2021/08/17 02:24:33;;;;;;;8.63;2.80;;;;;;;;;;5054454;28;20439;-72
2021/08/17 02:26:59;;;;;;;6.47;2.30;;;;;;;;;;5035137;28;20460;-72
2021/08/17 02:29:25;;;;;;;7.10;2.30;;;;;;;;;;5034495;28;20444;-71
2021/08/17 02:31:51;;;;;;;3.63;2.57;;;;;;;;;;5034216;28;20482;-72
2021/08/17 02:34:17;;;;;;;8.47;3.40;;;;;;;;;;5034385;28;20409;-72
2021/08/17 02:36:43;;;;;;;10.50;3.37;;;;;;;;;;5033838;28;20466;-72
2021/08/17 02:39:09;;;;;;;6.63;2.50;;;;;;;;;;5033915;28;20425;-72
2021/08/17 02:41:35;;;;;;;5.67;3.23;;;;;;;;;;5034111;28;20425;-71
2021/08/17 02:44:01;;;;;;;8.03;3.47;;;;;;;;;;5038122;28;20912;-72
2021/08/17 02:46:27;;;;;;;6.73;2.80;;;;;;;;;;5037033;28;20449;-72
2021/08/17 02:48:53;;;;;;;9.37;2.73;;;;;;;;;;5029475;28;20433;-73
2021/08/17 02:51:19;;;;;;;4.17;2.80;;;;;;;;;;5030366;28;20760;-73
2021/08/17 02:53:45;;;;;;;4.37;2.30;;;;;;;;;;5043505;28;20463;-72
2021/08/17 02:56:11;;;;;;;5.20;2.40;;;;;;;;;;5033122;28;20825;-73
2021/08/17 02:58:37;;;;;;;8.60;2.80;;;;;;;;;;5033290;28;20429;-73
2021/08/17 03:01:03;;;;;;;7.53;2.70;;;;;;;;;;5038490;28;20424;-73
2021/08/17 03:03:29;;;;;;;6.50;2.87;;;;;;;;;;5048937;28;20412;-73
2021/08/17 03:05:56;;;;;;;9.30;2.90;;;;;;;;;;5034436;28;20606;-73
2021/08/17 03:08:22;;;;;;;10.77;2.50;;;;;;;;;;5033007;28;20911;-72
2021/08/17 03:10:48;;;;;;;11.17;2.97;;;;;;;;;;5033622;28;20420;-73
2021/08/17 03:13:14;;;;;;;5.60;2.30;;;;;;;;;;5032965;28;20425;-72
2021/08/17 03:15:40;;;;;;;7.23;2.20;;;;;;;;;;5033175;28;20444;-73
2021/08/17 03:18:07;;;;;;;9.00;2.45;;;;;;;;;;5032440;28;21033;-72
2021/08/17 03:20:34;;;;;;;7.80;2.63;;;;;;;;;;5028601;28;20184;-73
2021/08/17 03:23:00;;;;;;;4.40;2.33;;;;;;;;;;5032370;28;20428;-73
2021/08/17 03:25:26;;;;;;;9.77;3.43;;;;;;;;;;5035544;28;20427;-73
2021/08/17 03:27:52;;;;;;;5.50;1.87;;;;;;;;;;5026415;28;20460;-73
2021/08/17 03:30:19;;;;;;;5.40;2.43;;;;;;;;;;5033504;28;20422;-73
2021/08/17 03:32:45;;;;;;;3.90;2.40;;;;;;;;;;5033218;28;20433;-73
2021/08/17 03:35:11;;;;;;;7.00;3.63;;;;;;;;;;5036719;28;20433;-73
2021/08/17 03:37:38;;;;;;;4.13;2.40;;;;;;;;;;5032052;28;20467;-73
2021/08/17 03:40:08;;;;;;;5.57;2.73;;;;;;;;;;5033371;28;20413;-73
2021/08/17 03:42:35;;;;;;;8.60;2.20;;;;;;;;;;5033326;28;20928;-72
2021/08/17 03:45:02;;;;;;;4.93;2.20;;;;;;;;;;5037115;28;20530;-73
2021/08/17 03:47:28;;;;;;;9.70;2.73;;;;;;;;;;5029097;28;20445;-73
2021/08/17 03:49:54;;;;;;;6.97;2.60;;;;;;;;;;5051336;28;20411;-74
2021/08/17 03:52:20;;;;;;;6.27;2.60;;;;;;;;;;5036167;28;20964;-74
2021/08/17 03:54:46;;;;;;;4.80;2.40;;;;;;;;;;5037535;28;20433;-74
2021/08/17 03:57:12;;;;;;;7.67;2.70;;;;;;;;;;5039623;28;20460;-74
2021/08/17 03:59:38;;;;;;;8.50;3.17;;;;;;;;;;5032754;28;20471;-74
2021/08/17 04:02:04;;;;;;;6.70;2.87;;;;;;;;;;5036480;28;20459;-74
2021/08/17 04:04:30;;;;;;;4.60;2.57;;;;;;;;;;5041549;28;20451;-74
2021/08/17 04:06:56;;;;;;;6.73;2.50;;;;;;;;;;5030901;28;20447;-74
2021/08/17 04:09:22;;;;;;;7.67;2.40;;;;;;;;;;5032968;28;20778;-72
2021/08/17 04:11:48;;;;;;;5.37;2.60;;;;;;;;;;5033212;28;20418;-72
2021/08/17 04:14:14;;;;;;;5.83;2.83;;;;;;;;;;5032801;28;20433;-72
2021/08/17 04:16:40;;;;;;;6.50;2.70;;;;;;;;;;5030268;28;20802;-75
2021/08/17 04:19:06;;;;;;;3.60;2.23;;;;;;;;;;5017339;28;20426;-74
2021/08/17 04:21:32;;;;;;;5.40;3.23;;;;;;;;;;5043698;28;20464;-74
2021/08/17 04:23:59;;;;;;;4.50;2.33;;;;;;;;;;5047113;28;20420;-73
2021/08/17 04:26:25;;;;;;;5.43;2.63;;;;;;;;;;5031283;28;20475;-74
2021/08/17 04:28:51;;;;;;;7.60;3.33;;;;;;;;;;5032199;28;20463;-74
2021/08/17 04:31:17;;;;;;;4.20;2.70;;;;;;;;;;5033060;28;20937;-73
2021/08/17 04:33:43;;;;;;;5.97;2.47;;;;;;;;;;5032798;28;20495;-74
2021/08/17 04:36:09;;;;;;;7.43;2.77;;;;;;;;;;5042959;28;21090;-73
2021/08/17 04:38:35;;;;;;;5.73;2.80;;;;;;;;;;5046453;28;20428;-73
2021/08/17 04:41:01;;;;;;;7.77;3.20;;;;;;;;;;5035309;28;20420;-72
2021/08/17 04:43:27;;;;;;;6.40;2.90;;;;;;;;;;5026573;28;20428;-73
2021/08/17 04:45:53;;;;;;;9.03;3.63;;;;;;;;;;5036143;28;20486;-73
2021/08/17 04:48:20;;;;;;;10.03;3.97;;;;;;;;;;5035566;28;20817;-73
2021/08/17 04:50:47;;;;;;;11.00;3.17;;;;;;;;;;5035961;28;20428;-71
2021/08/17 04:53:13;;;;;;;7.47;3.13;;;;;;;;;;5032257;28;20447;-73
2021/08/17 04:55:39;;;;;;;7.60;3.20;;;;;;;;;;5039172;28;20444;-73
2021/08/17 04:58:05;;;;;;;14.43;3.87;;;;;;;;;;5035232;28;20495;-73
2021/08/17 05:00:32;;;;;;;12.33;3.83;;;;;;;;;;5035618;28;20897;-73
2021/08/17 05:02:58;;;;;;;11.03;3.80;;;;;;;;;;5036162;28;20421;-73
2021/08/17 05:05:25;;;;;;;8.50;4.17;;;;;;;;;;5035617;28;20960;-73
2021/08/17 05:07:51;;;;;;;11.20;4.33;;;;;;;;;;5035612;28;20413;-73
2021/08/17 05:10:18;;;;;;;9.20;3.63;;;;;;;;;;5035428;28;20455;-72
2021/08/17 05:12:44;;;;;;;7.03;3.87;;;;;;;;;;5036063;28;20421;-73
2021/08/17 05:15:11;;;;;;;10.20;5.10;;;;;;;;;;5035260;28;20452;-73
2021/08/17 05:17:37;;;;;;;9.57;4.03;;;;;;;;;;5035194;28;20465;-72
2021/08/17 05:20:04;;;;;;;9.90;5.03;;;;;;;;;;5034088;28;20910;-72
2021/08/17 05:22:30;;;;;;;7.70;4.27;;;;;;;;;;5048333;28;20473;-73
2021/08/17 05:24:56;;;;;;;7.90;4.13;;;;;;;;;;5041772;28;20431;-73
2021/08/17 05:27:22;;;;;;;17.57;4.30;;;;;;;;;;5035421;28;20486;-73
2021/08/17 05:29:50;;;;;;;12.57;4.13;;;;;;;;;;5034240;28;20430;-73
2021/08/17 05:32:17;;;;;;;12.40;5.10;;;;;;;;;;5055756;28;20424;-73
2021/08/17 05:34:43;;;;;;;13.67;5.37;;;;;;;;;;5050532;28;20960;-71
2021/08/17 05:37:09;;;;;;;11.10;3.67;;;;;;;;;;5055049;28;20506;-73
2021/08/17 05:39:35;;;;;;;7.93;4.10;;;;;;;;;;5054466;28;20426;-73
2021/08/17 05:42:01;;;;;;;10.10;4.37;;;;;;;;;;5039757;28;20781;-73
2021/08/17 05:44:27;;;;;;;10.73;4.90;;;;;;;;;;5035108;28;20797;-74
2021/08/17 05:46:53;;;;;;;10.93;3.90;;;;;;;;;;5028872;28;20440;-72
2021/08/17 05:49:19;;;;;;;11.87;4.00;;;;;;;;;;5034373;28;20445;-73
2021/08/17 05:51:45;;;;;;;12.23;3.73;;;;;;;;;;5046474;28;20453;-73
2021/08/17 05:54:11;;;;;;;6.13;3.10;;;;;;;;;;5040582;28;20484;-73
2021/08/17 05:56:37;;;;;;;6.80;3.90;;;;;;;;;;5043354;28;20456;-73
2021/08/17 05:59:03;;;;;;;12.17;4.43;;;;;;;;;;5051339;28;20411;-73
2021/08/17 06:01:29;;;;;;;11.60;3.40;;;;;;;;;;5026615;28;20423;-73
2021/08/17 06:03:55;;;;;;;9.20;3.47;;;;;;;;;;5042515;28;20511;-73
2021/08/17 06:06:21;;;;;;;4.80;3.33;;;;;;;;;;5031332;28;20463;-74
2021/08/17 06:08:47;;;;;;;8.93;3.20;;;;;;;;;;5034366;28;20426;-73
2021/08/17 06:11:13;;;;;;;6.37;3.30;;;;;;;;;;5034905;28;20410;-72
2021/08/17 06:13:39;;;;;;;8.33;3.23;;;;;;;;;;5034569;28;20467;-72
2021/08/17 06:16:06;;;;;;;11.97;3.60;;;;;;;;;;5034223;28;20493;-72
2021/08/17 06:18:32;;;;;;;6.93;3.40;;;;;;;;;;5033800;28;20410;-73
2021/08/17 06:20:58;;;;;;;9.30;3.50;;;;;;;;;;5034421;28;20437;-73
2021/08/17 06:23:24;;;;;;;9.30;4.57;;;;;;;;;;5033948;28;20428;-73
2021/08/17 06:25:50;;;;;;;8.80;3.93;;;;;;;;;;5034214;28;20435;-73
2021/08/17 06:28:16;;;;;;;7.80;3.53;;;;;;;;;;5033784;28;20422;-72
2021/08/17 06:30:42;;;;;;;8.00;3.30;;;;;;;;;;5030446;28;20458;-72
2021/08/17 06:33:08;;;;;;;7.03;3.17;;;;;;;;;;5046164;28;20773;-73
2021/08/17 06:35:34;;;;;;;11.97;4.20;;;;;;;;;;5042141;28;20536;-73
2021/08/17 06:38:00;;;;;;;7.33;3.37;;;;;;;;;;5033980;28;20499;-72
2021/08/17 06:40:27;;;;;;;12.00;3.87;;;;;;;;;;5032617;28;20798;-72
2021/08/17 06:42:53;;;;;;;11.63;4.00;;;;;;;;;;5033806;28;20428;-70
2021/08/17 06:45:19;;;;;;;7.20;3.70;;;;;;;;;;5033950;28;20438;-71
2021/08/17 06:47:50;;;;;;;12.13;4.70;;;;;;;;;;5027679;28;20895;-72
2021/08/17 06:50:16;;;;;;;6.17;3.57;;;;;;;;;;5030537;28;20424;-72
2021/08/17 06:52:43;;;;;;;9.03;3.73;;;;;;;;;;5030376;28;20417;-73
2021/08/17 06:55:10;;;;;;;7.40;3.73;;;;;;;;;;5042481;28;20503;-72
2021/08/17 06:57:36;;;;;;;6.97;4.07;;;;;;;;;;5032280;28;20569;-73
2021/08/17 07:00:03;;;;;;;7.03;3.40;;;;;;;;;;5027524;28;20514;-71
2021/08/17 07:02:29;;;;;;;5.20;3.37;;;;;;;;;;5030555;28;20426;-72
2021/08/17 07:04:56;;;;;;;9.73;3.73;;;;;;;;;;5034182;28;20428;-72
2021/08/17 07:07:21;;;;;;;5.60;3.60;;;;;;;;;;5032860;28;20482;-73
2021/08/17 07:09:47;;;;;;;6.60;3.27;;;;;;;;;;5050152;28;20497;-72
2021/08/17 07:12:13;;;;;;;7.07;4.03;;;;;;;;;;5049915;28;20420;-72
2021/08/17 07:14:40;;;;;;;12.43;4.47;;;;;;;;;;5042322;28;20440;-72
2021/08/17 07:17:06;;;;;;;15.73;3.73;;;;;;;;;;5029163;28;20506;-72
2021/08/17 07:19:32;;;;;;;8.50;3.93;;;;;;;;;;5020276;28;20454;-72
2021/08/17 07:21:58;;;;;;;7.57;3.43;;;;;;;;;;5039741;28;20472;-72
2021/08/17 07:24:24;;;;;;;6.13;3.30;;;;;;;;;;5044254;28;20506;-72
2021/08/17 07:26:51;;;;;;;6.40;2.90;;;;;;;;;;5031780;28;20462;-72
2021/08/17 07:29:17;;;;;;;4.60;2.90;;;;;;;;;;5030673;28;20817;-73
2021/08/17 07:31:43;;;;;;;5.03;2.90;;;;;;;;;;5049540;28;20426;-72
2021/08/17 07:34:09;;;;;;;8.40;3.47;;;;;;;;;;5048527;28;20440;-72
2021/08/17 07:36:36;;;;;;;7.00;3.50;;;;;;;;;;5048983;28;20488;-72
2021/08/17 07:39:05;;;;;;;7.63;3.87;;;;;;;;;;5046853;28;20505;-72
2021/08/17 07:41:31;;;;;;;9.00;3.60;;;;;;;;;;5032409;28;20950;-72
2021/08/17 07:43:57;;;;;;;7.63;3.70;;;;;;;;;;5032800;28;20766;-71
2021/08/17 07:46:23;;;;;;;7.97;3.37;;;;;;;;;;5027740;28;20964;-71
2021/08/17 07:48:49;;;;;;;6.07;3.27;;;;;;;;;;5027446;28;20430;-71
2021/08/17 07:51:16;;;;;;;6.40;3.07;;;;;;;;;;5029236;28;20415;-71
2021/08/17 07:53:42;;;;;;;6.00;3.20;;;;;;;;;;5029349;28;20403;-72
2021/08/17 07:56:08;;;;;;;4.23;2.83;;;;;;;;;;5029073;28;20795;-72
2021/08/17 07:58:34;;;;;;;4.30;2.67;;;;;;;;;;5043059;28;20453;-72
2021/08/17 08:01:00;;;;;;;7.67;2.90;;;;;;;;;;5029057;28;20860;-71
2021/08/17 08:03:27;;;;;;;6.37;3.33;;;;;;;;;;5049152;28;20421;-71
2021/08/17 08:05:53;;;;;;;6.70;3.37;;;;;;;;;;5027584;28;20531;-71
2021/08/17 08:08:19;;;;;;;7.20;3.10;;;;;;;;;;5029022;28;20443;-71
2021/08/17 08:10:45;;;;;;;7.07;3.20;;;;;;;;;;5028761;28;20531;-71
2021/08/17 08:13:11;;;;;;;6.67;3.53;;;;;;;;;;5020243;28;20531;-71
2021/08/17 08:15:37;;;;;;;6.73;2.97;;;;;;;;;;5038074;28;20483;-71
2021/08/17 08:18:03;;;;;;;6.10;3.67;;;;;;;;;;5031634;28;20471;-70
2021/08/17 08:20:30;;;;;;;6.03;2.83;;;;;;;;;;5033231;28;20967;-72
2021/08/17 08:22:56;;;;;;;5.13;3.10;;;;;;;;;;5032514;28;20482;-71
2021/08/17 08:25:22;;;;;;;6.80;3.27;;;;;;;;;;5027631;28;20542;-71
2021/08/17 08:27:48;;;;;;;5.80;3.43;;;;;;;;;;5032666;28;20488;-71
2021/08/17 08:30:14;;;;;;;5.80;3.43;;;;;;;;;;5033048;28;20426;-70
2021/08/17 08:32:41;;;;;;;6.73;3.30;;;;;;;;;;5032787;28;20790;-71
2021/08/17 08:35:08;;;;;;;5.47;3.00;;;;;;;;;;5032698;28;20438;-71
2021/08/17 08:37:34;;;;;;;5.07;2.97;;;;;;;;;;5031743;28;20467;-70
2021/08/17 08:40:01;;;;;;;7.70;3.73;;;;;;;;;;5031426;28;20464;-71
2021/08/17 08:42:27;;;;;;;5.13;3.53;;;;;;;;;;5024335;28;20461;-71
2021/08/17 08:44:54;;;;;;;8.77;3.97;;;;;;;;;;5050039;28;20531;-70
2021/08/17 08:47:20;;;;;;;5.53;3.60;;;;;;;;;;5028463;28;20426;-71
2021/08/17 08:49:49;;;;;;;5.60;3.47;;;;;;;;;;5022984;28;20896;-70
2021/08/17 08:52:15;;;;;;;6.13;4.30;;;;;;;;;;5032422;28;20468;-70
2021/08/17 08:54:41;;;;;;;11.23;4.33;;;;;;;;;;5032370;28;20551;-70
2021/08/17 08:57:07;;;;;;;11.90;4.87;;;;;;;;;;5032085;28;20552;-70
2021/08/17 08:59:33;;;;;;;9.13;5.17;;;;;;;;;;5044401;28;20486;-72
2021/08/17 09:02:06;;;;;;;10.20;4.97;;;;;;;;;;5032432;28;20532;-71
2021/08/17 09:04:33;;;;;;;13.10;4.80;;;;;;;;;;5032183;28;20470;-71
2021/08/17 09:06:59;;;;;;;7.93;4.10;;;;;;;;;;5030563;28;20443;-71
2021/08/17 09:09:25;;;;;;;11.63;3.70;;;;;;;;;;5030884;28;20437;-71
2021/08/17 09:11:52;;;;;;;9.20;4.27;;;;;;;;;;5031431;28;20424;-71
2021/08/17 09:14:35;;;;;;;7.63;4.30;;;;;;;;;;5030796;28;20524;-70
2021/08/17 09:17:01;;;;;;;10.43;4.60;;;;;;;;;;5030094;28;20471;-72
2021/08/17 09:19:28;;;;;;;8.83;3.60;;;;;;;;;;5030584;28;20425;-72
2021/08/17 09:21:55;;;;;;;5.73;2.90;;;;;;;;;;5030635;28;21122;-72
2021/08/17 09:24:23;;;;;;;5.80;2.87;;;;;;;;;;5027505;28;20467;-71
2021/08/17 09:26:51;;;;;;;3.77;2.43;;;;;;;;;;5031423;28;20425;-71
2021/08/17 09:29:23;;;;;;;6.70;3.00;;;;;;;;;;5041443;28;20785;-71
2021/08/17 09:31:50;;;;;;;5.60;2.83;;;;;;;;;;5030764;28;20421;-72
2021/08/17 09:34:16;;;;;;;5.27;3.13;;;;;;;;;;5030397;28;20429;-71
2021/08/17 09:36:43;;;;;;;7.97;3.77;;;;;;;;;;5030165;28;20460;-71
2021/08/17 09:39:10;;;;;;;6.00;3.57;;;;;;;;;;5030377;28;20425;-71
2021/08/17 09:41:36;;;;;;;8.30;3.47;;;;;;;;;;5030543;28;20954;-71
2021/08/17 09:44:04;;;;;;;5.70;3.07;;;;;;;;;;5030063;28;20896;-71
2021/08/17 09:46:32;;;;;;;4.63;2.83;;;;;;;;;;5030403;28;20433;-71
2021/08/17 09:49:16;;;;;;;5.33;2.97;;;;;;;;;;5029966;28;21034;-71
2021/08/17 09:51:42;;;;;;;7.97;3.27;;;;;;;;;;5025464;28;20411;-71
2021/08/17 09:54:11;;;;;;;5.73;3.40;;;;;;;;;;5031672;28;20436;-71
2021/08/17 09:56:37;;;;;;;9.43;3.40;;;;;;;;;;5035383;28;21022;-71
2021/08/17 09:59:05;;;;;;;7.63;3.90;;;;;;;;;;5029861;28;20471;-71
2021/08/17 10:01:32;;;;;;;6.57;3.30;;;;;;;;;;5030225;28;20417;-71
2021/08/17 10:04:01;;;;;;;5.50;3.63;;;;;;;;;;5029767;28;20433;-72
2021/08/17 10:06:27;;;;;;;11.10;3.80;;;;;;;;;;4994536;28;1044837;-71
2021/08/17 10:08:54;;;;;;;8.60;3.30;;;;;;;;;;5030624;28;20438;-72
2021/08/17 10:11:20;;;;;;;7.03;3.20;;;;;;;;;;5041208;28;20421;-72
2021/08/17 10:13:47;;;;;;;3.60;2.40;;;;;;;;;;5030241;28;20796;-72
2021/08/17 10:16:16;;;;;;;7.60;3.27;;;;;;;;;;5032887;28;20458;-73
2021/08/17 10:18:44;;;;;;;5.40;2.90;;;;;;;;;;5043042;28;20815;-71
2021/08/17 10:21:10;;;;;;;7.67;3.00;;;;;;;;;;5038932;28;20426;-72
2021/08/17 10:23:40;;;;;;;4.00;2.60;;;;;;;;;;5036833;28;20454;-73
2021/08/17 10:26:06;;;;;;;6.70;3.33;;;;;;;;;;5033562;28;20490;-72
2021/08/17 10:28:36;;;;;;;6.37;3.23;;;;;;;;;;5028780;28;20439;-72
2021/08/17 10:31:12;;;;;;;7.40;3.07;;;;;;;;;;5030589;28;20928;-73
2021/08/17 10:33:39;;;;;;;6.13;3.73;;;;;;;;;;5030369;28;20431;-73
2021/08/17 10:36:05;;;;;;;7.20;3.77;;;;;;;;;;5017126;28;20460;-73
2021/08/17 10:38:31;;;;;;;4.77;3.00;;;;;;;;;;5046353;28;20474;-71
2021/08/17 10:40:57;;;;;;;8.47;3.13;;;;;;;;;;5030925;28;20569;-72
2021/08/17 10:43:43;;;;;;;7.50;3.50;;;;;;;;;;5030300;28;20427;-72
2021/08/17 10:46:12;;;;;;;6.50;3.73;;;;;;;;;;5030200;28;20499;-73
2021/08/17 10:48:49;;;;;;;8.00;3.37;;;;;;;;;;5029609;28;20432;-72
2021/08/17 10:51:18;;;;;;;7.80;3.50;;;;;;;;;;5028436;28;20444;-72
2021/08/17 10:53:52;;;;;;;9.47;3.83;;;;;;;;;;5030147;28;20600;-72
2021/08/17 10:56:19;;;;;;;6.83;3.30;;;;;;;;;;5021638;28;20478;-72
2021/08/17 10:58:48;;;;;;;11.73;4.13;;;;;;;;;;5029590;28;20440;-73
2021/08/17 11:01:34;;;;;;;9.13;4.10;;;;;;;;;;5029495;28;20482;-72
2021/08/17 11:04:16;;;;;;;5.50;3.20;;;;;;;;;;5029962;28;20510;-72
2021/08/17 11:06:52;;;;;;;10.17;3.90;;;;;;;;;;5029402;28;20778;-72
2021/08/17 11:09:19;;;;;;;6.03;4.20;;;;;;;;;;5029990;28;20430;-72
2021/08/17 11:11:55;;;;;;;9.07;3.60;;;;;;;;;;5029906;28;20527;-72
2021/08/17 11:14:22;;;;;;;8.13;3.67;;;;;;;;;;5029666;28;20445;-72
2021/08/17 11:16:51;;;;;;;10.33;3.80;;;;;;;;;;5029391;28;20539;-72
2021/08/17 11:19:19;;;;;;;7.90;3.73;;;;;;;;;;5029792;28;20425;-72
2021/08/17 11:21:49;;;;;;;4.97;3.30;;;;;;;;;;5028791;28;20855;-72
2021/08/17 11:24:20;;;;;;;11.07;3.87;;;;;;;;;;5029769;28;20508;-72
2021/08/17 11:26:48;;;;;;;11.73;3.60;;;;;;;;;;5028787;28;20464;-72
2021/08/17 11:29:14;;;;;;;9.63;4.13;;;;;;;;;;5029561;28;20457;-72
2021/08/17 11:31:45;;;;;;;8.90;3.60;;;;;;;;;;5022070;28;20470;-72
2021/08/17 11:34:11;;;;;;;10.87;4.53;;;;;;;;;;5029633;28;20425;-72
2021/08/17 11:36:37;;;;;;;15.90;4.17;;;;;;;;;;5017973;28;20443;-73
2021/08/17 11:39:17;;;;;;;7.33;3.80;;;;;;;;;;5044174;28;20453;-72
2021/08/17 11:41:43;;;;;;;11.30;4.30;;;;;;;;;;5037512;28;20422;-72
2021/08/17 11:44:13;;;;;;;10.77;4.20;;;;;;;;;;5029333;28;20424;-72
2021/08/17 11:46:39;;;;;;;5.90;3.70;;;;;;;;;;5028717;28;20417;-69
2021/08/17 11:49:21;;;;;;;14.23;4.10;;;;;;;;;;5029160;28;20507;-70
2021/08/17 11:51:47;;;;;;;8.33;4.03;;;;;;;;;;5029195;28;20909;-71
2021/08/17 11:54:16;;;;;;;6.80;4.17;;;;;;;;;;5029079;28;20517;-71
2021/08/17 11:56:42;;;;;;;7.77;4.63;;;;;;;;;;5030439;28;20473;-71
2021/08/17 11:59:08;;;;;;;11.90;4.93;;;;;;;;;;5038324;28;20494;-71
2021/08/17 12:01:34;;;;;;;22.13;13.20;;;;;;;;;;5015119;28;20464;-71
2021/08/17 12:04:10;;;;;;;9.73;5.00;;;;;;;;;;5022353;28;20967;-71
2021/08/17 12:06:36;;;;;;;13.57;4.63;;;;;;;;;;5028916;28;20484;-72
2021/08/17 12:09:18;;;;;;;10.90;5.00;;;;;;;;;;5032818;28;20457;-72
2021/08/17 12:11:59;;;;;;;12.40;4.60;;;;;;;;;;5029256;28;20969;-70
2021/08/17 12:14:25;;;;;;;10.40;4.23;;;;;;;;;;5027211;28;20483;-70
2021/08/17 12:16:52;;;;;;;9.47;4.77;;;;;;;;;;5023465;28;20582;-70
2021/08/17 12:19:18;;;;;;;9.77;4.30;;;;;;;;;;5021267;28;20434;-70
2021/08/17 12:21:45;;;;;;;11.60;4.47;;;;;;;;;;5028882;28;20462;-69
2021/08/17 12:24:20;;;;;;;8.37;4.40;;;;;;;;;;5021448;28;20436;-70
2021/08/17 12:26:56;;;;;;;12.50;4.40;;;;;;;;;;5018323;28;20429;-70
2021/08/17 12:29:23;;;;;;;8.67;4.60;;;;;;;;;;5027187;28;20429;-70
2021/08/17 12:31:50;;;;;;;19.23;4.97;;;;;;;;;;5020922;28;20434;-69
2021/08/17 12:34:16;;;;;;;10.37;5.20;;;;;;;;;;5044290;28;20416;-70
2021/08/17 12:36:44;;;;;;;9.67;4.20;;;;;;;;;;5031464;28;20472;-69
2021/08/17 12:39:28;;;;;;;8.47;4.30;;;;;;;;;;5028928;28;20511;-68
2021/08/17 12:41:55;;;;;;;9.97;4.80;;;;;;;;;;5028601;28;20427;-69
2021/08/17 12:44:22;;;;;;;9.13;4.43;;;;;;;;;;5027397;28;20518;-69
2021/08/17 12:46:58;;;;;;;18.63;4.93;;;;;;;;;;5028404;28;20463;-69
2021/08/17 12:49:24;;;;;;;15.63;6.67;;;;;;;;;;5028403;28;20946;-70
2021/08/17 12:51:50;;;;;;;9.50;4.20;;;;;;;;;;5028776;28;20422;-70
2021/08/17 12:54:15;;;;;;;9.23;4.33;;;;;;;;;;5028492;28;20442;-68
2021/08/17 12:56:41;;;;;;;12.10;5.03;;;;;;;;;;5034208;28;20956;-69
2021/08/17 12:59:07;;;;;;;10.80;5.00;;;;;;;;;;5043239;28;20464;-69
2021/08/17 13:01:33;;;;;;;10.60;5.07;;;;;;;;;;5051764;28;20413;-69
2021/08/17 13:03:59;;;;;;;7.70;4.43;;;;;;;;;;5030526;28;20438;-68
2021/08/17 13:06:26;;;;;;;9.80;5.20;;;;;;;;;;5031919;28;20458;-70
2021/08/17 13:08:52;;;;;;;9.63;4.97;;;;;;;;;;5030974;28;20460;-69
2021/08/17 13:11:18;;;;;;;12.30;5.10;;;;;;;;;;5032637;28;20440;-68
2021/08/17 13:13:43;;;;;;;7.50;4.87;;;;;;;;;;5031346;28;20472;-69
2021/08/17 13:16:09;;;;;;;11.53;5.10;;;;;;;;;;5031963;28;20482;-69
2021/08/17 13:18:35;;;;;;;9.37;5.37;;;;;;;;;;5031610;28;20509;-68
2021/08/17 13:21:01;;;;;;;8.90;4.90;;;;;;;;;;5025810;28;20473;-70
2021/08/17 13:23:27;;;;;;;10.30;5.00;;;;;;;;;;5051908;28;20434;-69
2021/08/17 13:25:53;;;;;;;7.40;4.73;;;;;;;;;;5026924;28;20491;-70
2021/08/17 13:28:21;;;;;;;8.90;4.70;;;;;;;;;;5030573;28;20430;-69
2021/08/17 13:30:47;;;;;;;10.73;5.20;;;;;;;;;;5027426;28;20499;-68
2021/08/17 13:33:13;;;;;;;10.23;5.23;;;;;;;;;;5036228;28;20461;-70
2021/08/17 13:35:39;;;;;;;7.20;4.77;;;;;;;;;;5029571;28;20841;-70
2021/08/17 13:38:06;;;;;;;12.13;5.50;;;;;;;;;;5031463;28;20496;-70
2021/08/17 13:40:32;;;;;;;8.40;5.23;;;;;;;;;;5031541;28;20482;-70
2021/08/17 13:42:59;;;;;;;12.30;5.60;;;;;;;;;;5031215;28;20827;-70
2021/08/17 13:45:25;;;;;;;10.63;5.47;;;;;;;;;;5031437;28;20446;-71
2021/08/17 13:47:51;;;;;;;10.37;5.33;;;;;;;;;;5032493;28;20430;-71
2021/08/17 13:50:17;;;;;;;10.63;5.40;;;;;;;;;;5051405;28;20892;-71
2021/08/17 13:52:43;;;;;;;9.93;5.63;;;;;;;;;;5017299;28;20524;-70
2021/08/17 13:55:09;;;;;;;8.47;4.97;;;;;;;;;;5029932;28;20511;-70
2021/08/17 13:57:35;;;;;;;10.20;5.23;;;;;;;;;;5029494;28;20928;-70
2021/08/17 14:00:01;;;;;;;9.80;5.40;;;;;;;;;;5031365;28;20451;-70
2021/08/17 14:02:28;;;;;;;10.67;5.70;;;;;;;;;;5029333;28;20426;-70
2021/08/17 14:04:54;;;;;;;11.00;5.10;;;;;;;;;;5038734;28;20590;-71
2021/08/17 14:07:20;;;;;;;11.23;5.50;;;;;;;;;;5028842;28;20525;-71
2021/08/17 14:09:46;;;;;;;8.50;5.63;;;;;;;;;;5030808;28;20774;-71
2021/08/17 14:12:12;;;;;;;8.80;5.70;;;;;;;;;;5029632;28;20425;-71
2021/08/17 14:14:38;;;;;;;10.10;5.20;;;;;;;;;;5020855;28;20455;-70
2021/08/17 14:17:04;;;;;;;10.77;5.30;;;;;;;;;;5044683;28;20481;-71
2021/08/17 14:19:30;;;;;;;9.37;5.03;;;;;;;;;;5039977;28;20915;-71
2021/08/17 14:21:56;;;;;;;10.67;5.17;;;;;;;;;;5048131;28;20486;-71
2021/08/17 14:24:22;;;;;;;10.93;5.47;;;;;;;;;;5039623;28;20938;-71
2021/08/17 14:26:48;;;;;;;10.80;5.70;;;;;;;;;;5050172;28;20432;-72
2021/08/17 14:29:14;;;;;;;11.33;4.60;;;;;;;;;;5019911;28;20466;-71
2021/08/17 14:31:40;;;;;;;10.10;5.07;;;;;;;;;;5030534;28;20429;-71
2021/08/17 14:34:07;;;;;;;7.50;5.27;;;;;;;;;;5030590;28;20434;-71
2021/08/17 14:36:33;;;;;;;10.93;5.37;;;;;;;;;;5029992;28;20522;-71
2021/08/17 14:39:02;;;;;;;9.27;5.60;;;;;;;;;;5030392;28;20431;-71